CheckWX is a tool to help pilots better visualize weather data.  It is not intended as a substitute for an official pre-flight weather briefing.

12:44:39 UTC

RJOB TAF
Okayama Airport
Okayama City, Japan
TAF RJOB 221105Z 2212/2318 35004KT 9999 FEW020 SCT040 BECMG 2300/2303 24006KT

Mar-22@
12:00 UTC

Mar-22 @ 12:00 UTC

Mar-23@
00:00 UTC

Mar-23 @ 00:00 UTC

TAF RJOB 221105Z 2212/2318 35004KT 9999 FEW020 SCT040
Wind
  • 350° at 4 KTS
Cloud Levels
  • Few at 2,000' AGL
  • Scattered at 4,000' AGL

Mar-23@
00:00 UTC

Mar-23 @ 00:00 UTC

Mar-23@
18:00 UTC

Mar-23 @ 18:00 UTC

BECMG 2300/2303 24006KT

Becoming

Becoming Conditions expected by Sat, Mar 23, 2019 @ 03:00 UTC

Wind
  • 240° at 6 KTS
Cloud Levels
  • Few at 2,000' AGL
  • Scattered at 4,000' AGL